WZZ95CH LBSF-LEXJ
Flight info
| Callsign | WZZ95CH |
|---|---|
| Flight time | N/A |
| Altitude | 32000 |
| Route | OGOTA T228 UTEKA DCT SMI DCT TUVAR DCT TEBLI DCT ROTAR DCT RONOP DCT GIGUS DCT BALSI DCT GIPNO DCT RUSIT DCT ESIDA DCT LERGA DCT MINSO DCT NARAK DCT AGN DCT DIGPO DCT ERAKI DCT PPN DCT MALOB DCT CEGAM M601 BLV |
| Aircraft | A21N/M-SDE2E3FGHIRWXY/LB1 |
Departure
| Time | N/A |
|---|---|
| Airport | Sofia Airport (LBSF) |
Arrival
| Time | 2026-05-06 18:02 |
|---|---|
| Airport | Seve Ballesteros-Santander Airport (LEXJ) |
| Time | Latitude | Longitude | Altitude | Speed | Heading |
|---|---|---|---|---|---|
| 2026-05-06 15:15 | 43.79455 | 22.55204 | 29980 ft | 428 kts | 314° |
| 2026-05-06 15:15 | 43.81582 | 22.52325 | 30284 ft | 428 kts | 314° |
| 2026-05-06 15:16 | 43.83702 | 22.49450 | 30566 ft | 427 kts | 314° |
| 2026-05-06 15:16 | 43.85822 | 22.46574 | 30862 ft | 426 kts | 314° |
| 2026-05-06 15:16 | 43.87934 | 22.43703 | 31162 ft | 425 kts | 314° |
| 2026-05-06 15:16 | 43.90025 | 22.40808 | 31444 ft | 424 kts | 311° |
| 2026-05-06 15:17 | 43.91831 | 22.37591 | 31707 ft | 421 kts | 301° |
| 2026-05-06 15:17 | 43.93282 | 22.34072 | 31940 ft | 421 kts | 298° |
| 2026-05-06 15:17 | 43.94661 | 22.30476 | 31980 ft | 422 kts | 297° |
| 2026-05-06 15:18 | 43.97411 | 22.23296 | 31959 ft | 421 kts | 298° |
| 2026-05-06 15:18 | 44.00190 | 22.16126 | 31950 ft | 422 kts | 298° |
| 2026-05-06 15:19 | 44.02976 | 22.08955 | 31946 ft | 422 kts | 298° |
| 2026-05-06 15:19 | 44.05749 | 22.01780 | 31949 ft | 422 kts | 297° |
| 2026-05-06 15:20 | 44.08488 | 21.94566 | 31933 ft | 422 kts | 297° |
| 2026-05-06 15:20 | 44.11235 | 21.87338 | 31933 ft | 422 kts | 297° |
| 2026-05-06 15:21 | 44.13993 | 21.80121 | 31954 ft | 422 kts | 297° |
| 2026-05-06 15:21 | 44.16756 | 21.72903 | 31952 ft | 422 kts | 297° |
| 2026-05-06 15:22 | 44.19532 | 21.65680 | 31950 ft | 423 kts | 297° |
| 2026-05-06 15:22 | 44.22280 | 21.58421 | 31935 ft | 424 kts | 296° |
| 2026-05-06 15:23 | 44.25018 | 21.51153 | 31943 ft | 424 kts | 297° |
| 2026-05-06 15:23 | 44.27777 | 21.43879 | 31939 ft | 424 kts | 297° |
| 2026-05-06 15:24 | 44.30532 | 21.36607 | 31920 ft | 424 kts | 296° |
| 2026-05-06 15:24 | 44.33288 | 21.29328 | 31928 ft | 424 kts | 296° |
| 2026-05-06 15:25 | 44.36017 | 21.22080 | 31917 ft | 424 kts | 296° |
| 2026-05-06 15:25 | 44.38753 | 21.14803 | 31921 ft | 423 kts | 296° |
| 2026-05-06 15:26 | 44.41467 | 21.07510 | 31916 ft | 423 kts | 296° |
| 2026-05-06 15:26 | 44.44172 | 21.00193 | 31917 ft | 424 kts | 296° |
| 2026-05-06 15:27 | 44.46901 | 20.92879 | 31918 ft | 424 kts | 296° |
| 2026-05-06 15:27 | 44.49619 | 20.85554 | 31920 ft | 424 kts | 296° |
| 2026-05-06 15:28 | 44.52333 | 20.78218 | 31924 ft | 424 kts | 296° |
| 2026-05-06 15:28 | 44.55036 | 20.70867 | 31920 ft | 424 kts | 296° |
| 2026-05-06 15:29 | 44.57736 | 20.63514 | 31911 ft | 424 kts | 295° |
| 2026-05-06 15:29 | 44.60394 | 20.56121 | 31916 ft | 424 kts | 295° |
| 2026-05-06 15:30 | 44.63117 | 20.48765 | 31928 ft | 424 kts | 296° |
| 2026-05-06 15:30 | 44.65815 | 20.41399 | 31935 ft | 424 kts | 295° |
| 2026-05-06 15:31 | 44.68502 | 20.34005 | 31934 ft | 424 kts | 295° |
| 2026-05-06 15:31 | 44.71169 | 20.26610 | 31933 ft | 424 kts | 295° |
| 2026-05-06 15:32 | 44.75173 | 20.15560 | 31934 ft | 424 kts | 295° |
| 2026-05-06 15:32 | 44.77410 | 20.09354 | 31935 ft | 424 kts | 295° |
| 2026-05-06 15:33 | 44.80473 | 20.00745 | 31925 ft | 423 kts | 294° |
| 2026-05-06 15:33 | 44.83104 | 19.93326 | 31910 ft | 423 kts | 295° |
| 2026-05-06 15:34 | 44.85294 | 19.87161 | 31913 ft | 423 kts | 294° |
| 2026-05-06 15:34 | 44.87923 | 19.79739 | 31911 ft | 423 kts | 295° |
| 2026-05-06 15:35 | 44.90556 | 19.72332 | 31902 ft | 423 kts | 294° |
| 2026-05-06 15:35 | 44.93210 | 19.64936 | 31904 ft | 422 kts | 294° |
| 2026-05-06 15:36 | 44.95839 | 19.57513 | 31902 ft | 422 kts | 294° |
| 2026-05-06 15:36 | 44.98437 | 19.50077 | 31905 ft | 422 kts | 294° |
| 2026-05-06 15:37 | 45.01051 | 19.42648 | 31902 ft | 423 kts | 293° |
| 2026-05-06 15:37 | 45.03575 | 19.35124 | 31898 ft | 423 kts | 292° |
| 2026-05-06 15:38 | 45.06076 | 19.27607 | 31901 ft | 423 kts | 292° |
| 2026-05-06 15:38 | 45.08582 | 19.20075 | 31897 ft | 423 kts | 292° |
| 2026-05-06 15:39 | 45.11062 | 19.12580 | 31900 ft | 423 kts | 292° |
| 2026-05-06 15:39 | 45.12786 | 19.04711 | 31899 ft | 418 kts | 275° |
| 2026-05-06 15:40 | 45.13147 | 18.96502 | 31896 ft | 418 kts | 271° |
| 2026-05-06 15:40 | 45.13422 | 18.88285 | 31892 ft | 418 kts | 272° |
| 2026-05-06 15:41 | 45.13732 | 18.80072 | 31890 ft | 418 kts | 272° |
| 2026-05-06 15:41 | 45.14054 | 18.71863 | 31900 ft | 417 kts | 271° |
| 2026-05-06 15:42 | 45.14374 | 18.63659 | 31899 ft | 417 kts | 271° |
| 2026-05-06 15:42 | 45.14683 | 18.55457 | 31896 ft | 417 kts | 271° |
| 2026-05-06 15:43 | 45.14979 | 18.47243 | 31896 ft | 417 kts | 271° |
| 2026-05-06 15:43 | 45.15277 | 18.39025 | 31899 ft | 417 kts | 271° |
| 2026-05-06 15:44 | 45.15562 | 18.30827 | 31901 ft | 415 kts | 271° |
| 2026-05-06 15:44 | 45.15846 | 18.22659 | 31901 ft | 415 kts | 271° |
| 2026-05-06 15:45 | 45.16118 | 18.14481 | 31903 ft | 415 kts | 271° |
| 2026-05-06 15:45 | 45.16401 | 18.06305 | 31902 ft | 415 kts | 271° |
| 2026-05-06 15:46 | 45.16666 | 17.98137 | 31900 ft | 415 kts | 270° |
| 2026-05-06 15:46 | 45.16921 | 17.89955 | 31900 ft | 415 kts | 270° |
| 2026-05-06 15:47 | 45.17173 | 17.81790 | 31896 ft | 415 kts | 270° |
| 2026-05-06 15:47 | 45.17420 | 17.73632 | 31887 ft | 415 kts | 270° |
| 2026-05-06 15:48 | 45.17661 | 17.65506 | 31898 ft | 416 kts | 270° |
| 2026-05-06 15:48 | 45.17901 | 17.57304 | 31906 ft | 416 kts | 270° |
| 2026-05-06 15:49 | 45.18132 | 17.49100 | 31906 ft | 417 kts | 270° |
| 2026-05-06 15:49 | 45.18365 | 17.40891 | 31906 ft | 417 kts | 269° |
| 2026-05-06 15:50 | 45.18580 | 17.32674 | 31900 ft | 417 kts | 269° |
| 2026-05-06 15:50 | 45.18798 | 17.24457 | 31903 ft | 417 kts | 269° |
| 2026-05-06 15:51 | 45.18996 | 17.16240 | 31916 ft | 418 kts | 269° |
| 2026-05-06 15:51 | 45.19206 | 17.07987 | 31915 ft | 419 kts | 269° |
| 2026-05-06 15:52 | 45.19403 | 16.99719 | 31914 ft | 419 kts | 269° |
| 2026-05-06 15:52 | 45.19603 | 16.91473 | 31908 ft | 419 kts | 269° |
| 2026-05-06 15:53 | 45.19789 | 16.83187 | 31913 ft | 419 kts | 269° |
| 2026-05-06 15:53 | 45.19963 | 16.74933 | 31915 ft | 419 kts | 269° |
| 2026-05-06 15:54 | 45.20140 | 16.66670 | 31910 ft | 419 kts | 269° |
| 2026-05-06 15:54 | 45.20396 | 16.58418 | 31911 ft | 420 kts | 269° |
| 2026-05-06 15:55 | 45.20657 | 16.50152 | 31914 ft | 420 kts | 269° |
| 2026-05-06 15:55 | 45.20921 | 16.41880 | 31917 ft | 420 kts | 269° |
| 2026-05-06 15:56 | 45.21174 | 16.33638 | 31931 ft | 417 kts | 269° |
| 2026-05-06 15:56 | 45.21420 | 16.25422 | 31921 ft | 417 kts | 269° |
| 2026-05-06 15:57 | 45.21653 | 16.17209 | 31913 ft | 416 kts | 269° |
| 2026-05-06 15:57 | 45.21885 | 16.09017 | 31917 ft | 414 kts | 269° |
| 2026-05-06 15:58 | 45.22107 | 16.00870 | 31911 ft | 414 kts | 269° |
| 2026-05-06 15:58 | 45.22327 | 15.92734 | 31922 ft | 411 kts | 269° |
| 2026-05-06 15:59 | 45.22531 | 15.84629 | 31915 ft | 411 kts | 269° |
| 2026-05-06 15:59 | 45.22738 | 15.76569 | 31918 ft | 411 kts | 269° |
| 2026-05-06 16:00 | 45.22931 | 15.68465 | 31927 ft | 411 kts | 269° |
| 2026-05-06 16:00 | 45.23128 | 15.60362 | 31922 ft | 411 kts | 269° |
| 2026-05-06 16:01 | 45.23313 | 15.52292 | 31923 ft | 408 kts | 268° |
| 2026-05-06 16:01 | 45.23482 | 15.44240 | 31923 ft | 408 kts | 269° |
| 2026-05-06 16:02 | 45.23657 | 15.36188 | 31922 ft | 408 kts | 268° |
| 2026-05-06 16:02 | 45.23827 | 15.28092 | 31920 ft | 408 kts | 269° |
| 2026-05-06 16:03 | 45.23998 | 15.20096 | 31922 ft | 408 kts | 268° |
| 2026-05-06 16:03 | 45.24155 | 15.12048 | 31932 ft | 407 kts | 268° |
| 2026-05-06 16:04 | 45.24312 | 15.04003 | 31941 ft | 408 kts | 268° |
| 2026-05-06 16:04 | 45.24461 | 14.95954 | 31952 ft | 408 kts | 268° |
| 2026-05-06 16:05 | 45.24598 | 14.87912 | 31955 ft | 408 kts | 268° |
| 2026-05-06 16:05 | 45.24735 | 14.79864 | 31966 ft | 408 kts | 268° |
| 2026-05-06 16:06 | 45.24864 | 14.71805 | 31968 ft | 409 kts | 268° |
| 2026-05-06 16:06 | 45.24976 | 14.63737 | 31971 ft | 409 kts | 268° |
| 2026-05-06 16:07 | 45.25095 | 14.55681 | 31963 ft | 409 kts | 268° |
| 2026-05-06 16:07 | 45.25212 | 14.47607 | 31964 ft | 409 kts | 268° |
| 2026-05-06 16:08 | 45.25321 | 14.39553 | 31991 ft | 406 kts | 268° |
| 2026-05-06 16:08 | 45.25411 | 14.31624 | 31971 ft | 401 kts | 268° |
| 2026-05-06 16:09 | 45.25501 | 14.23702 | 31965 ft | 402 kts | 268° |
| 2026-05-06 16:09 | 45.25594 | 14.15775 | 31965 ft | 401 kts | 268° |
| 2026-05-06 16:10 | 45.25678 | 14.07859 | 31959 ft | 401 kts | 267° |
| 2026-05-06 16:10 | 45.25751 | 13.99999 | 31977 ft | 402 kts | 267° |
| 2026-05-06 16:11 | 45.25831 | 13.92042 | 31951 ft | 403 kts | 267° |
| 2026-05-06 16:11 | 45.25900 | 13.84094 | 31933 ft | 403 kts | 267° |
| 2026-05-06 16:12 | 45.25965 | 13.76143 | 31928 ft | 403 kts | 267° |
| 2026-05-06 16:12 | 45.26018 | 13.68182 | 31917 ft | 403 kts | 267° |
| 2026-05-06 16:13 | 45.26065 | 13.60242 | 31947 ft | 402 kts | 266° |
| 2026-05-06 16:13 | 45.26114 | 13.52305 | 31915 ft | 401 kts | 266° |
| 2026-05-06 16:14 | 45.26148 | 13.44392 | 31911 ft | 401 kts | 266° |
| 2026-05-06 16:14 | 45.26175 | 13.36476 | 31905 ft | 401 kts | 266° |
| 2026-05-06 16:15 | 45.26199 | 13.28568 | 31900 ft | 401 kts | 266° |
| 2026-05-06 16:15 | 45.26223 | 13.20669 | 31916 ft | 400 kts | 265° |
| 2026-05-06 16:16 | 45.26243 | 13.12800 | 31897 ft | 398 kts | 265° |
| 2026-05-06 16:16 | 45.26234 | 13.04949 | 31873 ft | 398 kts | 265° |
| 2026-05-06 16:17 | 45.26256 | 12.97091 | 31874 ft | 399 kts | 266° |
| 2026-05-06 16:17 | 45.26357 | 12.89231 | 31865 ft | 399 kts | 266° |
| 2026-05-06 16:18 | 45.26435 | 12.81361 | 31882 ft | 398 kts | 265° |
| 2026-05-06 16:18 | 45.26521 | 12.73503 | 31872 ft | 398 kts | 265° |
| 2026-05-06 16:19 | 45.26593 | 12.65655 | 31853 ft | 398 kts | 265° |
| 2026-05-06 16:19 | 45.26660 | 12.57784 | 31860 ft | 399 kts | 265° |
| 2026-05-06 16:20 | 45.26733 | 12.51228 | 31867 ft | 399 kts | 265° |
| 2026-05-06 16:20 | 45.26805 | 12.43351 | 31896 ft | 399 kts | 265° |
| 2026-05-06 16:21 | 45.26867 | 12.35479 | 31871 ft | 399 kts | 265° |
| 2026-05-06 16:21 | 45.26925 | 12.27610 | 31868 ft | 398 kts | 265° |
| 2026-05-06 16:22 | 45.26970 | 12.19750 | 31862 ft | 398 kts | 265° |
| 2026-05-06 16:22 | 45.27010 | 12.11889 | 31857 ft | 399 kts | 265° |
| 2026-05-06 16:23 | 45.27045 | 12.04025 | 31900 ft | 398 kts | 264° |
| 2026-05-06 16:23 | 45.27074 | 11.96171 | 31868 ft | 397 kts | 264° |
| 2026-05-06 16:24 | 45.27094 | 11.88340 | 31863 ft | 397 kts | 264° |
| 2026-05-06 16:24 | 45.27110 | 11.80488 | 31849 ft | 397 kts | 264° |
| 2026-05-06 16:25 | 45.27128 | 11.72651 | 31855 ft | 397 kts | 264° |
| 2026-05-06 16:25 | 45.27128 | 11.64823 | 31853 ft | 397 kts | 263° |
| 2026-05-06 16:26 | 45.27093 | 11.57038 | 31862 ft | 393 kts | 263° |
| 2026-05-06 16:26 | 45.27082 | 11.49270 | 31861 ft | 394 kts | 263° |
| 2026-05-06 16:27 | 45.27086 | 11.41502 | 31855 ft | 394 kts | 264° |
| 2026-05-06 16:27 | 45.27103 | 11.33717 | 31854 ft | 394 kts | 263° |
| 2026-05-06 16:28 | 45.27088 | 11.25953 | 31856 ft | 393 kts | 263° |
| 2026-05-06 16:28 | 45.27057 | 11.18182 | 31871 ft | 394 kts | 263° |
| 2026-05-06 16:29 | 45.27037 | 11.10412 | 31874 ft | 393 kts | 263° |
| 2026-05-06 16:29 | 45.27001 | 11.02654 | 31874 ft | 393 kts | 263° |
| 2026-05-06 16:30 | 45.26960 | 10.96194 | 31874 ft | 393 kts | 263° |
| 2026-05-06 16:30 | 45.26912 | 10.87121 | 31852 ft | 393 kts | 263° |
| 2026-05-06 16:31 | 45.26859 | 10.79388 | 31855 ft | 391 kts | 262° |
| 2026-05-06 16:31 | 45.26799 | 10.71646 | 31814 ft | 393 kts | 263° |
| 2026-05-06 16:32 | 45.26741 | 10.63863 | 31835 ft | 395 kts | 263° |
| 2026-05-06 16:32 | 45.26671 | 10.56066 | 31828 ft | 395 kts | 263° |
| 2026-05-06 16:33 | 45.26593 | 10.48261 | 31823 ft | 395 kts | 263° |
| 2026-05-06 16:34 | 45.26487 | 10.36656 | 31835 ft | 392 kts | 262° |
| 2026-05-06 16:34 | 45.26390 | 10.28904 | 31825 ft | 393 kts | 262° |
| 2026-05-06 16:35 | 45.26299 | 10.21104 | 31817 ft | 393 kts | 262° |
| 2026-05-06 16:35 | 45.26210 | 10.13407 | 31817 ft | 393 kts | 262° |
| 2026-05-06 16:36 | 45.26105 | 10.05659 | 31851 ft | 392 kts | 262° |
| 2026-05-06 16:36 | 45.26002 | 9.97937 | 31821 ft | 391 kts | 262° |
| 2026-05-06 16:37 | 45.25890 | 9.90224 | 31807 ft | 391 kts | 262° |
| 2026-05-06 16:37 | 45.25768 | 9.82502 | 31805 ft | 391 kts | 262° |
| 2026-05-06 16:38 | 45.25640 | 9.74791 | 31817 ft | 391 kts | 262° |
| 2026-05-06 16:38 | 45.25513 | 9.67078 | 31870 ft | 391 kts | 261° |
| 2026-05-06 16:39 | 45.25388 | 9.59376 | 31854 ft | 390 kts | 261° |
| 2026-05-06 16:39 | 45.25259 | 9.51670 | 31858 ft | 390 kts | 261° |
| 2026-05-06 16:40 | 45.25117 | 9.43977 | 31839 ft | 390 kts | 261° |
| 2026-05-06 16:40 | 45.24982 | 9.36278 | 31785 ft | 390 kts | 261° |
| 2026-05-06 16:41 | 45.24830 | 9.28593 | 31826 ft | 390 kts | 261° |
| 2026-05-06 16:41 | 45.24673 | 9.20867 | 31789 ft | 392 kts | 261° |
| 2026-05-06 16:42 | 45.24512 | 9.13123 | 31788 ft | 392 kts | 261° |
| 2026-05-06 16:42 | 45.24342 | 9.05392 | 31790 ft | 392 kts | 261° |
| 2026-05-06 16:43 | 45.24170 | 8.97653 | 31789 ft | 392 kts | 261° |
| 2026-05-06 16:43 | 45.23988 | 8.89923 | 31793 ft | 392 kts | 261° |
| 2026-05-06 16:44 | 45.23805 | 8.82174 | 31884 ft | 392 kts | 261° |
| 2026-05-06 16:44 | 45.23618 | 8.74452 | 31883 ft | 391 kts | 261° |
| 2026-05-06 16:45 | 45.23423 | 8.66734 | 31899 ft | 391 kts | 261° |
| 2026-05-06 16:45 | 45.23221 | 8.59026 | 31897 ft | 391 kts | 261° |
| 2026-05-06 16:46 | 45.23014 | 8.51316 | 31887 ft | 391 kts | 261° |
| 2026-05-06 16:46 | 45.22807 | 8.43580 | 31819 ft | 394 kts | 261° |
| 2026-05-06 16:47 | 45.22594 | 8.35850 | 31808 ft | 395 kts | 261° |
| 2026-05-06 16:47 | 45.22372 | 8.28084 | 31804 ft | 395 kts | 261° |
| 2026-05-06 16:48 | 45.22145 | 8.20294 | 31806 ft | 395 kts | 261° |
| 2026-05-06 16:48 | 45.21907 | 8.12475 | 31802 ft | 394 kts | 261° |
| 2026-05-06 16:49 | 45.21669 | 8.04725 | 31814 ft | 398 kts | 261° |
| 2026-05-06 16:49 | 45.21427 | 7.96837 | 31802 ft | 398 kts | 261° |
| 2026-05-06 16:50 | 45.21179 | 7.89039 | 31794 ft | 398 kts | 261° |
| 2026-05-06 16:50 | 45.20919 | 7.81199 | 31792 ft | 398 kts | 261° |
| 2026-05-06 16:51 | 45.20657 | 7.73315 | 31783 ft | 398 kts | 261° |
| 2026-05-06 16:51 | 45.20390 | 7.65498 | 31804 ft | 403 kts | 261° |
| 2026-05-06 16:52 | 45.20113 | 7.57532 | 31791 ft | 405 kts | 261° |
| 2026-05-06 16:52 | 45.19832 | 7.49521 | 31847 ft | 404 kts | 261° |
| 2026-05-06 16:53 | 45.19547 | 7.41622 | 31860 ft | 404 kts | 261° |
| 2026-05-06 16:53 | 45.19254 | 7.33697 | 31868 ft | 404 kts | 261° |
| 2026-05-06 16:54 | 45.18958 | 7.25746 | 31874 ft | 403 kts | 261° |
| 2026-05-06 16:54 | 45.18766 | 7.17788 | 31876 ft | 408 kts | 267° |
| 2026-05-06 16:54 | 45.19199 | 7.13777 | 31863 ft | 418 kts | 278° |
| 2026-05-06 16:55 | 45.20173 | 7.09842 | 31858 ft | 425 kts | 284° |
| 2026-05-06 16:55 | 45.22461 | 7.02095 | 31880 ft | 426 kts | 285° |
| 2026-05-06 16:56 | 45.24721 | 6.94338 | 31920 ft | 425 kts | 285° |
| 2026-05-06 16:56 | 45.26938 | 6.86585 | 31878 ft | 424 kts | 285° |
| 2026-05-06 16:57 | 45.29160 | 6.78818 | 31899 ft | 425 kts | 285° |
| 2026-05-06 16:57 | 45.31378 | 6.71034 | 31905 ft | 424 kts | 285° |
| 2026-05-06 16:58 | 45.33584 | 6.63259 | 31916 ft | 425 kts | 285° |
| 2026-05-06 16:58 | 45.35787 | 6.55481 | 31946 ft | 425 kts | 286° |
| 2026-05-06 16:59 | 45.37973 | 6.47715 | 31929 ft | 426 kts | 286° |
| 2026-05-06 16:59 | 45.39800 | 6.39749 | 31934 ft | 422 kts | 279° |
| 2026-05-06 17:00 | 45.41279 | 6.31658 | 31930 ft | 423 kts | 279° |
| 2026-05-06 17:01 | 45.44100 | 6.16183 | 32005 ft | 426 kts | 281° |
| 2026-05-06 17:01 | 45.44840 | 6.12097 | 32258 ft | 427 kts | 280° |
| 2026-05-06 17:01 | 45.45584 | 6.07997 | 32527 ft | 426 kts | 280° |
| 2026-05-06 17:01 | 45.46324 | 6.03910 | 32760 ft | 427 kts | 280° |
| 2026-05-06 17:02 | 45.47064 | 5.99808 | 32986 ft | 427 kts | 280° |
| 2026-05-06 17:02 | 45.47811 | 5.95702 | 33189 ft | 428 kts | 281° |
| 2026-05-06 17:02 | 45.48595 | 5.91623 | 33397 ft | 428 kts | 281° |
| 2026-05-06 17:02 | 45.49388 | 5.87511 | 33574 ft | 430 kts | 281° |
| 2026-05-06 17:03 | 45.50166 | 5.83452 | 33794 ft | 431 kts | 281° |
| 2026-05-06 17:03 | 45.50966 | 5.79281 | 33932 ft | 433 kts | 282° |
| 2026-05-06 17:03 | 45.51761 | 5.75135 | 33947 ft | 433 kts | 282° |
| 2026-05-06 17:04 | 45.53328 | 5.66924 | 33906 ft | 433 kts | 282° |
| 2026-05-06 17:04 | 45.54913 | 5.58575 | 33897 ft | 433 kts | 282° |
| 2026-05-06 17:05 | 45.56432 | 5.50315 | 33903 ft | 432 kts | 280° |
| 2026-05-06 17:05 | 45.57865 | 5.41985 | 33910 ft | 431 kts | 281° |
| 2026-05-06 17:06 | 45.59284 | 5.33661 | 33908 ft | 431 kts | 281° |
| 2026-05-06 17:06 | 45.60695 | 5.25343 | 33898 ft | 431 kts | 281° |
| 2026-05-06 17:07 | 45.62104 | 5.17027 | 33897 ft | 431 kts | 281° |
| 2026-05-06 17:07 | 45.63511 | 5.08703 | 33899 ft | 431 kts | 281° |
| 2026-05-06 17:08 | 45.64908 | 5.00384 | 33899 ft | 431 kts | 281° |
| 2026-05-06 17:08 | 45.65978 | 4.91986 | 33890 ft | 427 kts | 269° |
| 2026-05-06 17:08 | 45.65807 | 4.87773 | 33882 ft | 425 kts | 258° |
| 2026-05-06 17:09 | 45.64984 | 4.83740 | 33892 ft | 423 kts | 246° |
| 2026-05-06 17:09 | 45.62327 | 4.76223 | 33895 ft | 423 kts | 242° |
| 2026-05-06 17:10 | 45.59629 | 4.68778 | 33891 ft | 423 kts | 243° |
| 2026-05-06 17:10 | 45.56948 | 4.61275 | 33901 ft | 426 kts | 243° |
| 2026-05-06 17:11 | 45.54259 | 4.53738 | 33906 ft | 426 kts | 243° |
| 2026-05-06 17:11 | 45.51566 | 4.46218 | 33905 ft | 426 kts | 243° |
| 2026-05-06 17:12 | 45.47978 | 4.36252 | 33899 ft | 423 kts | 243° |
| 2026-05-06 17:12 | 45.42683 | 4.21526 | 33910 ft | 426 kts | 243° |
| 2026-05-06 17:13 | 45.37226 | 4.06473 | 33898 ft | 427 kts | 242° |
| 2026-05-06 17:13 | 45.31763 | 3.91502 | 33887 ft | 427 kts | 242° |
| 2026-05-06 17:14 | 45.26310 | 3.76628 | 33901 ft | 427 kts | 242° |
| 2026-05-06 17:14 | 45.22363 | 3.68143 | 33889 ft | 427 kts | 235° |
| 2026-05-06 17:15 | 45.18952 | 3.61256 | 33889 ft | 427 kts | 235° |
| 2026-05-06 17:15 | 45.15542 | 3.54363 | 33887 ft | 427 kts | 235° |
| 2026-05-06 17:16 | 45.12133 | 3.47477 | 33881 ft | 424 kts | 235° |
| 2026-05-06 17:16 | 45.08744 | 3.40654 | 33891 ft | 424 kts | 235° |
| 2026-05-06 17:17 | 45.03499 | 3.30115 | 33901 ft | 424 kts | 235° |
| 2026-05-06 17:17 | 44.96708 | 3.16541 | 33900 ft | 424 kts | 235° |
| 2026-05-06 17:18 | 44.89903 | 3.02983 | 33911 ft | 424 kts | 235° |
| 2026-05-06 17:18 | 44.83161 | 2.89305 | 33914 ft | 425 kts | 237° |
| 2026-05-06 17:19 | 44.76726 | 2.75327 | 33926 ft | 425 kts | 238° |
| 2026-05-06 17:19 | 44.70270 | 2.61378 | 33928 ft | 428 kts | 237° |
| 2026-05-06 17:20 | 44.63729 | 2.47326 | 33930 ft | 429 kts | 237° |
| 2026-05-06 17:20 | 44.57188 | 2.33349 | 33931 ft | 426 kts | 237° |
| 2026-05-06 17:21 | 44.50646 | 2.19423 | 33932 ft | 430 kts | 237° |
| 2026-05-06 17:21 | 44.44043 | 2.05417 | 33926 ft | 430 kts | 237° |
| 2026-05-06 17:22 | 44.37446 | 1.91518 | 33916 ft | 425 kts | 237° |
| 2026-05-06 17:22 | 44.30832 | 1.77645 | 33922 ft | 430 kts | 238° |
| 2026-05-06 17:23 | 44.24336 | 1.63596 | 33930 ft | 430 kts | 238° |
| 2026-05-06 17:23 | 44.17886 | 1.49597 | 33923 ft | 428 kts | 239° |
| 2026-05-06 17:24 | 44.11416 | 1.35623 | 33927 ft | 430 kts | 239° |
| 2026-05-06 17:24 | 44.04923 | 1.21665 | 33933 ft | 430 kts | 239° |
| 2026-05-06 17:25 | 43.98426 | 1.07770 | 33939 ft | 428 kts | 239° |
| 2026-05-06 17:25 | 43.91918 | 0.93911 | 33942 ft | 429 kts | 239° |
| 2026-05-06 17:26 | 43.84645 | 0.80810 | 33952 ft | 431 kts | 230° |
| 2026-05-06 17:26 | 43.76647 | 0.68501 | 33948 ft | 429 kts | 231° |
| 2026-05-06 17:27 | 43.68669 | 0.56237 | 33962 ft | 429 kts | 231° |
| 2026-05-06 17:27 | 43.60743 | 0.44096 | 33974 ft | 425 kts | 231° |
| 2026-05-06 17:28 | 43.52804 | 0.31985 | 33971 ft | 426 kts | 232° |
| 2026-05-06 17:28 | 43.49647 | 0.25185 | 33992 ft | 421 kts | 245° |
| 2026-05-06 17:28 | 43.47854 | 0.20376 | 33992 ft | 421 kts | 245° |
| 2026-05-06 17:29 | 43.41551 | 0.03644 | 33986 ft | 418 kts | 244° |
| 2026-05-06 17:29 | 43.37058 | -0.08181 | 33995 ft | 419 kts | 244° |
| 2026-05-06 17:30 | 43.31652 | -0.22336 | 33994 ft | 419 kts | 244° |
| 2026-05-06 17:30 | 43.28405 | -0.30789 | 33994 ft | 419 kts | 244° |
| 2026-05-06 17:31 | 43.25682 | -0.37861 | 33994 ft | 419 kts | 244° |
| 2026-05-06 17:31 | 43.22979 | -0.44870 | 33994 ft | 419 kts | 244° |
| 2026-05-06 17:32 | 43.20260 | -0.51901 | 33993 ft | 416 kts | 244° |
| 2026-05-06 17:32 | 43.17544 | -0.58908 | 33999 ft | 416 kts | 244° |
| 2026-05-06 17:33 | 43.14829 | -0.65897 | 34002 ft | 416 kts | 244° |
| 2026-05-06 17:33 | 43.12109 | -0.72879 | 34004 ft | 416 kts | 244° |
| 2026-05-06 17:34 | 43.09384 | -0.79856 | 33997 ft | 416 kts | 244° |
| 2026-05-06 17:34 | 43.06649 | -0.86842 | 34007 ft | 417 kts | 244° |
| 2026-05-06 17:35 | 43.03900 | -0.93823 | 34006 ft | 416 kts | 244° |
| 2026-05-06 17:35 | 43.01170 | -1.00775 | 33972 ft | 415 kts | 244° |
| 2026-05-06 17:36 | 42.97109 | -1.11053 | 33993 ft | 411 kts | 244° |
| 2026-05-06 17:36 | 42.94381 | -1.17906 | 34004 ft | 412 kts | 243° |
| 2026-05-06 17:37 | 42.91638 | -1.24788 | 34001 ft | 411 kts | 243° |
| 2026-05-06 17:37 | 42.88900 | -1.31641 | 33997 ft | 411 kts | 243° |
| 2026-05-06 17:38 | 42.86167 | -1.38468 | 33997 ft | 410 kts | 243° |
| 2026-05-06 17:38 | 42.83428 | -1.45282 | 33996 ft | 410 kts | 243° |
| 2026-05-06 17:39 | 42.80684 | -1.52081 | 33995 ft | 410 kts | 243° |
| 2026-05-06 17:39 | 42.79312 | -1.55479 | 33739 ft | 409 kts | 243° |
| 2026-05-06 17:39 | 42.77939 | -1.58883 | 32747 ft | 413 kts | 243° |
| 2026-05-06 17:40 | 42.76684 | -1.62410 | 31908 ft | 414 kts | 250° |
| 2026-05-06 17:40 | 42.75894 | -1.66161 | 31224 ft | 413 kts | 261° |
| 2026-05-06 17:40 | 42.75676 | -1.70093 | 30647 ft | 418 kts | 272° |
| 2026-05-06 17:40 | 42.76042 | -1.73987 | 30112 ft | 415 kts | 283° |
| 2026-05-06 17:41 | 42.76971 | -1.77680 | 29451 ft | 412 kts | 294° |
| 2026-05-06 17:41 | 42.78380 | -1.81069 | 28853 ft | 413 kts | 302° |
| 2026-05-06 17:41 | 42.79946 | -1.84334 | 28276 ft | 410 kts | 302° |
| 2026-05-06 17:41 | 42.81499 | -1.87570 | 27725 ft | 406 kts | 302° |
| 2026-05-06 17:42 | 42.83019 | -1.90770 | 27151 ft | 402 kts | 302° |
| 2026-05-06 17:42 | 42.84531 | -1.93976 | 26569 ft | 399 kts | 302° |
| 2026-05-06 17:42 | 42.86026 | -1.97159 | 26000 ft | 397 kts | 302° |
| 2026-05-06 17:42 | 42.87502 | -2.00310 | 25458 ft | 394 kts | 302° |
| 2026-05-06 17:43 | 42.88971 | -2.03454 | 24913 ft | 391 kts | 302° |
| 2026-05-06 17:43 | 42.90427 | -2.06572 | 24358 ft | 390 kts | 302° |
| 2026-05-06 17:43 | 42.91880 | -2.09686 | 23812 ft | 388 kts | 302° |
| 2026-05-06 17:43 | 42.93320 | -2.12782 | 23217 ft | 386 kts | 302° |
| 2026-05-06 17:44 | 42.94756 | -2.15866 | 22621 ft | 383 kts | 302° |
| 2026-05-06 17:44 | 42.96177 | -2.18928 | 22035 ft | 381 kts | 302° |
| 2026-05-06 17:44 | 42.97588 | -2.21965 | 21472 ft | 378 kts | 302° |
| 2026-05-06 17:44 | 42.98998 | -2.25001 | 20944 ft | 376 kts | 302° |
| 2026-05-06 17:45 | 43.00402 | -2.27993 | 20408 ft | 373 kts | 302° |
| 2026-05-06 17:45 | 43.01797 | -2.30962 | 19911 ft | 370 kts | 302° |
| 2026-05-06 17:45 | 43.03183 | -2.33911 | 19438 ft | 367 kts | 302° |
| 2026-05-06 17:45 | 43.04544 | -2.36811 | 18976 ft | 366 kts | 302° |
| 2026-05-06 17:46 | 43.05913 | -2.39728 | 18512 ft | 365 kts | 302° |
| 2026-05-06 17:46 | 43.07279 | -2.42643 | 18026 ft | 364 kts | 302° |
| 2026-05-06 17:46 | 43.08642 | -2.45558 | 17551 ft | 363 kts | 302° |
| 2026-05-06 17:46 | 43.10003 | -2.48474 | 17073 ft | 362 kts | 302° |
| 2026-05-06 17:47 | 43.11357 | -2.51379 | 16594 ft | 362 kts | 302° |
| 2026-05-06 17:47 | 43.12705 | -2.54272 | 16130 ft | 360 kts | 301° |
| 2026-05-06 17:47 | 43.14046 | -2.57151 | 15721 ft | 356 kts | 301° |
| 2026-05-06 17:47 | 43.15362 | -2.59982 | 15305 ft | 348 kts | 301° |
| 2026-05-06 17:48 | 43.16652 | -2.62759 | 14882 ft | 342 kts | 301° |
| 2026-05-06 17:48 | 43.17653 | -2.65729 | 14182 ft | 348 kts | 286° |
| 2026-05-06 17:48 | 43.18276 | -2.68920 | 13638 ft | 344 kts | 283° |
| 2026-05-06 17:48 | 43.18853 | -2.72084 | 13117 ft | 339 kts | 283° |
| 2026-05-06 17:49 | 43.19431 | -2.75184 | 12659 ft | 333 kts | 283° |
| 2026-05-06 17:49 | 43.20012 | -2.78247 | 12234 ft | 332 kts | 284° |
| 2026-05-06 17:49 | 43.20598 | -2.81307 | 11816 ft | 331 kts | 284° |
| 2026-05-06 17:49 | 43.21184 | -2.84354 | 11386 ft | 331 kts | 284° |
| 2026-05-06 17:50 | 43.21773 | -2.87415 | 10978 ft | 330 kts | 284° |
| 2026-05-06 17:50 | 43.22345 | -2.90397 | 10641 ft | 316 kts | 284° |
| 2026-05-06 17:50 | 43.22891 | -2.93243 | 10381 ft | 301 kts | 284° |
| 2026-05-06 17:50 | 43.23408 | -2.95955 | 10113 ft | 287 kts | 284° |
| 2026-05-06 17:51 | 43.23901 | -2.98545 | 9852 ft | 276 kts | 284° |
| 2026-05-06 17:51 | 43.24384 | -3.01078 | 9548 ft | 273 kts | 284° |
| 2026-05-06 17:51 | 43.24862 | -3.03586 | 9221 ft | 272 kts | 284° |
| 2026-05-06 17:51 | 43.25338 | -3.06092 | 8875 ft | 271 kts | 284° |
| 2026-05-06 17:52 | 43.25815 | -3.08589 | 8532 ft | 271 kts | 284° |
| 2026-05-06 17:52 | 43.26292 | -3.11086 | 8181 ft | 271 kts | 284° |
| 2026-05-06 17:52 | 43.26764 | -3.13572 | 7845 ft | 270 kts | 284° |
| 2026-05-06 17:52 | 43.27235 | -3.16067 | 7522 ft | 269 kts | 284° |
| 2026-05-06 17:53 | 43.27708 | -3.18545 | 7187 ft | 268 kts | 284° |
| 2026-05-06 17:53 | 43.28177 | -3.21012 | 6862 ft | 267 kts | 284° |
| 2026-05-06 17:53 | 43.28644 | -3.23473 | 6563 ft | 266 kts | 284° |
| 2026-05-06 17:53 | 43.29111 | -3.25929 | 6217 ft | 266 kts | 284° |
| 2026-05-06 17:54 | 43.29574 | -3.28383 | 5850 ft | 265 kts | 285° |
| 2026-05-06 17:54 | 43.30033 | -3.30829 | 5522 ft | 262 kts | 285° |
| 2026-05-06 17:54 | 43.30487 | -3.33248 | 5215 ft | 261 kts | 285° |
| 2026-05-06 17:54 | 43.30931 | -3.35615 | 5037 ft | 248 kts | 285° |
| 2026-05-06 17:55 | 43.31344 | -3.37826 | 5030 ft | 231 kts | 285° |
| 2026-05-06 17:55 | 43.31732 | -3.39882 | 5031 ft | 212 kts | 286° |
| 2026-05-06 17:55 | 43.32118 | -3.41769 | 5039 ft | 205 kts | 288° |
| 2026-05-06 17:55 | 43.32543 | -3.43643 | 5046 ft | 207 kts | 289° |
| 2026-05-06 17:56 | 43.32978 | -3.45548 | 4735 ft | 209 kts | 290° |
| 2026-05-06 17:56 | 43.33467 | -3.47428 | 4488 ft | 209 kts | 291° |
| 2026-05-06 17:56 | 43.33965 | -3.49304 | 4465 ft | 209 kts | 291° |
| 2026-05-06 17:56 | 43.34460 | -3.51155 | 4417 ft | 209 kts | 291° |
| 2026-05-06 17:57 | 43.34967 | -3.53048 | 4237 ft | 208 kts | 291° |
| 2026-05-06 17:57 | 43.35449 | -3.54851 | 4041 ft | 196 kts | 291° |
| 2026-05-06 17:57 | 43.35911 | -3.56576 | 3802 ft | 186 kts | 291° |
| 2026-05-06 17:57 | 43.36347 | -3.58207 | 3541 ft | 179 kts | 291° |
| 2026-05-06 17:58 | 43.36769 | -3.59786 | 3283 ft | 173 kts | 292° |
| 2026-05-06 17:58 | 43.37173 | -3.61293 | 3020 ft | 167 kts | 291° |
| 2026-05-06 17:58 | 43.37567 | -3.62768 | 2795 ft | 161 kts | 290° |
| 2026-05-06 17:58 | 43.37953 | -3.64211 | 2574 ft | 160 kts | 290° |
| 2026-05-06 17:59 | 43.38337 | -3.65648 | 2363 ft | 160 kts | 290° |
| 2026-05-06 17:59 | 43.38719 | -3.67077 | 2146 ft | 159 kts | 291° |
| 2026-05-06 17:59 | 43.39097 | -3.68491 | 1929 ft | 160 kts | 291° |
| 2026-05-06 17:59 | 43.39482 | -3.69930 | 1726 ft | 160 kts | 291° |
| 2026-05-06 18:00 | 43.39850 | -3.71309 | 1537 ft | 143 kts | 291° |
| 2026-05-06 18:00 | 43.40184 | -3.72559 | 1331 ft | 139 kts | 291° |
| 2026-05-06 18:00 | 43.40518 | -3.73810 | 1119 ft | 140 kts | 291° |
| 2026-05-06 18:00 | 43.40857 | -3.75068 | 938 ft | 141 kts | 291° |
| 2026-05-06 18:01 | 43.41193 | -3.76335 | 743 ft | 142 kts | 291° |
| 2026-05-06 18:01 | 43.41536 | -3.77621 | 535 ft | 145 kts | 290° |
| 2026-05-06 18:01 | 43.41887 | -3.78919 | 331 ft | 145 kts | 291° |
| 2026-05-06 18:01 | 43.42232 | -3.80246 | 141 ft | 150 kts | 290° |
| 2026-05-06 18:02 | 43.42589 | -3.81587 | 28 ft | 142 kts | 291° |
| 2026-05-06 18:02 | 43.42863 | -3.82582 | 25 ft | 77 kts | 290° |
| 2026-05-06 18:02 | 43.42939 | -3.82896 | 25 ft | 9 kts | 283° |
| 2026-05-06 18:02 | 43.42925 | -3.82989 | 26 ft | 12 kts | 238° |
| 2026-05-06 18:03 | 43.42835 | -3.83033 | 24 ft | 17 kts | 153° |
| 2026-05-06 18:03 | 43.42778 | -3.82882 | 24 ft | 20 kts | 112° |
| 2026-05-06 18:03 | 43.42724 | -3.82703 | 24 ft | 21 kts | 111° |
| 2026-05-06 18:03 | 43.42671 | -3.82507 | 24 ft | 22 kts | 109° |
| 2026-05-06 18:04 | 43.42622 | -3.82316 | 24 ft | 9 kts | 120° |
| 2026-05-06 18:04 | 43.42565 | -3.82309 | 24 ft | 10 kts | 200° |
| 2026-05-06 18:04 | 43.42495 | -3.82344 | 25 ft | 12 kts | 200° |
| 2026-05-06 18:04 | 43.42431 | -3.82343 | 24 ft | 4 kts | 164° |
| 2026-05-06 18:05 | 43.42411 | -3.82345 | 24 ft | 2 kts | 236° |
| 2026-05-06 18:05 | 43.42412 | -3.82345 | 24 ft | 0 kts | 244° |
| 2026-05-06 18:05 | 43.42410 | -3.82347 | 24 ft | 1 kts | 237° |
| 2026-05-06 18:05 | 43.42408 | -3.82350 | 26 ft | 0 kts | 226° |
| 2026-05-06 18:06 | 43.42402 | -3.82360 | 24 ft | 2 kts | 235° |